sensor_id;sensor_type;location;lat;lon;timestamp;P1;durP1;ratioP1;P2;durP2;ratioP2
12597;SDS011;6364;53.590;9.956;2023-05-29T00:00:43;15.95;;;3.58;;
12597;SDS011;6364;53.590;9.956;2023-05-29T00:03:08;13.25;;;3.03;;
12597;SDS011;6364;53.590;9.956;2023-05-29T00:05:34;14.55;;;3.60;;
12597;SDS011;6364;53.590;9.956;2023-05-29T00:08:00;13.43;;;3.08;;
12597;SDS011;6364;53.590;9.956;2023-05-29T00:10:25;19.33;;;3.50;;
12597;SDS011;6364;53.590;9.956;2023-05-29T00:12:51;21.65;;;3.58;;
12597;SDS011;6364;53.590;9.956;2023-05-29T00:15:16;11.65;;;3.00;;
12597;SDS011;6364;53.590;9.956;2023-05-29T00:17:41;13.35;;;2.80;;
12597;SDS011;6364;53.590;9.956;2023-05-29T00:20:08;17.63;;;3.10;;
12597;SDS011;6364;53.590;9.956;2023-05-29T00:22:36;14.18;;;2.75;;
12597;SDS011;6364;53.590;9.956;2023-05-29T00:25:03;17.73;;;3.15;;
12597;SDS011;6364;53.590;9.956;2023-05-29T00:27:30;16.20;;;2.75;;
12597;SDS011;6364;53.590;9.956;2023-05-29T00:29:55;17.20;;;3.20;;
12597;SDS011;6364;53.590;9.956;2023-05-29T00:32:20;16.95;;;3.53;;
12597;SDS011;6364;53.590;9.956;2023-05-29T00:34:46;19.42;;;3.05;;
12597;SDS011;6364;53.590;9.956;2023-05-29T00:37:11;15.07;;;2.95;;
12597;SDS011;6364;53.590;9.956;2023-05-29T00:39:36;16.98;;;4.28;;
12597;SDS011;6364;53.590;9.956;2023-05-29T00:42:02;19.08;;;3.83;;
12597;SDS011;6364;53.590;9.956;2023-05-29T00:44:27;16.05;;;2.90;;
12597;SDS011;6364;53.590;9.956;2023-05-29T00:46:53;21.25;;;4.20;;
12597;SDS011;6364;53.590;9.956;2023-05-29T00:49:19;16.13;;;3.45;;
12597;SDS011;6364;53.590;9.956;2023-05-29T00:51:45;16.20;;;3.83;;
12597;SDS011;6364;53.590;9.956;2023-05-29T00:54:11;14.10;;;3.42;;
12597;SDS011;6364;53.590;9.956;2023-05-29T00:56:41;13.93;;;3.17;;
12597;SDS011;6364;53.590;9.956;2023-05-29T00:59:09;16.67;;;3.00;;
12597;SDS011;6364;53.590;9.956;2023-05-29T01:01:35;16.95;;;3.38;;
12597;SDS011;6364;53.590;9.956;2023-05-29T01:04:01;19.20;;;2.88;;
12597;SDS011;6364;53.590;9.956;2023-05-29T01:06:28;15.40;;;3.30;;
12597;SDS011;6364;53.590;9.956;2023-05-29T01:08:53;9.90;;;2.42;;
12597;SDS011;6364;53.590;9.956;2023-05-29T01:11:21;21.45;;;3.45;;
12597;SDS011;6364;53.590;9.956;2023-05-29T01:14:10;21.45;;;3.33;;
12597;SDS011;6364;53.590;9.956;2023-05-29T01:16:44;19.07;;;3.70;;
12597;SDS011;6364;53.590;9.956;2023-05-29T01:22:28;19.95;;;3.55;;
12597;SDS011;6364;53.590;9.956;2023-05-29T01:27:47;17.58;;;2.90;;
12597;SDS011;6364;53.590;9.956;2023-05-29T01:30:12;18.63;;;3.83;;
12597;SDS011;6364;53.590;9.956;2023-05-29T01:32:40;18.42;;;3.15;;
12597;SDS011;6364;53.590;9.956;2023-05-29T01:35:06;18.17;;;3.08;;
12597;SDS011;6364;53.590;9.956;2023-05-29T01:37:32;19.50;;;2.85;;
12597;SDS011;6364;53.590;9.956;2023-05-29T01:39:57;16.50;;;2.90;;
12597;SDS011;6364;53.590;9.956;2023-05-29T01:42:22;17.55;;;3.05;;
12597;SDS011;6364;53.590;9.956;2023-05-29T01:44:48;19.02;;;3.08;;
12597;SDS011;6364;53.590;9.956;2023-05-29T01:47:13;16.27;;;2.90;;
12597;SDS011;6364;53.590;9.956;2023-05-29T01:49:39;16.08;;;3.13;;
12597;SDS011;6364;53.590;9.956;2023-05-29T01:52:06;18.60;;;3.35;;
12597;SDS011;6364;53.590;9.956;2023-05-29T01:54:31;14.00;;;2.85;;
12597;SDS011;6364;53.590;9.956;2023-05-29T01:56:57;14.68;;;3.17;;
12597;SDS011;6364;53.590;9.956;2023-05-29T01:59:22;18.48;;;3.50;;
12597;SDS011;6364;53.590;9.956;2023-05-29T02:01:48;15.05;;;2.92;;
12597;SDS011;6364;53.590;9.956;2023-05-29T02:04:13;17.85;;;4.15;;
12597;SDS011;6364;53.590;9.956;2023-05-29T02:06:38;19.30;;;3.53;;
12597;SDS011;6364;53.590;9.956;2023-05-29T02:09:04;14.15;;;3.20;;
12597;SDS011;6364;53.590;9.956;2023-05-29T02:11:29;17.10;;;3.92;;
12597;SDS011;6364;53.590;9.956;2023-05-29T02:13:54;17.25;;;3.60;;
12597;SDS011;6364;53.590;9.956;2023-05-29T02:16:20;16.75;;;3.05;;
12597;SDS011;6364;53.590;9.956;2023-05-29T02:18:45;22.48;;;3.67;;
12597;SDS011;6364;53.590;9.956;2023-05-29T02:21:11;18.55;;;3.40;;
12597;SDS011;6364;53.590;9.956;2023-05-29T02:23:37;23.17;;;3.42;;
12597;SDS011;6364;53.590;9.956;2023-05-29T02:26:02;17.33;;;3.47;;
12597;SDS011;6364;53.590;9.956;2023-05-29T02:28:27;15.73;;;3.75;;
12597;SDS011;6364;53.590;9.956;2023-05-29T02:30:53;19.13;;;3.17;;
12597;SDS011;6364;53.590;9.956;2023-05-29T02:33:18;19.00;;;3.45;;
12597;SDS011;6364;53.590;9.956;2023-05-29T02:35:44;20.98;;;3.20;;
12597;SDS011;6364;53.590;9.956;2023-05-29T02:38:10;23.38;;;3.15;;
12597;SDS011;6364;53.590;9.956;2023-05-29T02:40:35;15.95;;;3.33;;
12597;SDS011;6364;53.590;9.956;2023-05-29T02:43:00;17.73;;;3.00;;
12597;SDS011;6364;53.590;9.956;2023-05-29T02:45:26;16.65;;;2.97;;
12597;SDS011;6364;53.590;9.956;2023-05-29T02:47:51;24.77;;;3.38;;
12597;SDS011;6364;53.590;9.956;2023-05-29T02:50:16;18.35;;;3.13;;
12597;SDS011;6364;53.590;9.956;2023-05-29T02:52:42;19.38;;;3.30;;
12597;SDS011;6364;53.590;9.956;2023-05-29T02:55:07;23.52;;;3.53;;
12597;SDS011;6364;53.590;9.956;2023-05-29T02:57:32;18.90;;;3.40;;
12597;SDS011;6364;53.590;9.956;2023-05-29T02:59:58;26.90;;;3.88;;
12597;SDS011;6364;53.590;9.956;2023-05-29T03:02:24;19.35;;;3.28;;
12597;SDS011;6364;53.590;9.956;2023-05-29T03:04:49;20.40;;;3.50;;
12597;SDS011;6364;53.590;9.956;2023-05-29T03:07:18;17.20;;;3.50;;
12597;SDS011;6364;53.590;9.956;2023-05-29T03:09:43;17.30;;;3.80;;
12597;SDS011;6364;53.590;9.956;2023-05-29T03:12:09;19.00;;;3.78;;
12597;SDS011;6364;53.590;9.956;2023-05-29T03:14:34;26.02;;;3.83;;
12597;SDS011;6364;53.590;9.956;2023-05-29T03:17:01;21.98;;;3.53;;
12597;SDS011;6364;53.590;9.956;2023-05-29T03:19:28;15.43;;;3.20;;
12597;SDS011;6364;53.590;9.956;2023-05-29T03:21:54;17.35;;;3.08;;
12597;SDS011;6364;53.590;9.956;2023-05-29T03:24:19;17.45;;;3.33;;
12597;SDS011;6364;53.590;9.956;2023-05-29T03:26:45;20.75;;;3.78;;
12597;SDS011;6364;53.590;9.956;2023-05-29T03:29:11;18.70;;;3.30;;
12597;SDS011;6364;53.590;9.956;2023-05-29T03:31:36;17.00;;;3.33;;
12597;SDS011;6364;53.590;9.956;2023-05-29T03:34:01;19.17;;;3.75;;
12597;SDS011;6364;53.590;9.956;2023-05-29T03:36:26;21.45;;;3.58;;
12597;SDS011;6364;53.590;9.956;2023-05-29T03:38:53;20.25;;;3.35;;
12597;SDS011;6364;53.590;9.956;2023-05-29T03:41:18;20.05;;;3.42;;
12597;SDS011;6364;53.590;9.956;2023-05-29T03:43:43;17.05;;;3.35;;
12597;SDS011;6364;53.590;9.956;2023-05-29T03:46:09;22.27;;;3.70;;
12597;SDS011;6364;53.590;9.956;2023-05-29T03:48:34;21.20;;;3.15;;
12597;SDS011;6364;53.590;9.956;2023-05-29T03:50:59;16.85;;;3.78;;
12597;SDS011;6364;53.590;9.956;2023-05-29T03:53:25;24.75;;;4.13;;
12597;SDS011;6364;53.590;9.956;2023-05-29T03:55:50;21.95;;;3.53;;
12597;SDS011;6364;53.590;9.956;2023-05-29T03:58:16;18.60;;;3.40;;
12597;SDS011;6364;53.590;9.956;2023-05-29T04:00:41;24.23;;;3.40;;
12597;SDS011;6364;53.590;9.956;2023-05-29T04:03:06;22.05;;;3.53;;
12597;SDS011;6364;53.590;9.956;2023-05-29T04:05:32;29.73;;;3.95;;
12597;SDS011;6364;53.590;9.956;2023-05-29T04:07:58;21.60;;;3.55;;
12597;SDS011;6364;53.590;9.956;2023-05-29T04:10:23;27.48;;;4.00;;
12597;SDS011;6364;53.590;9.956;2023-05-29T04:12:49;25.92;;;4.93;;
12597;SDS011;6364;53.590;9.956;2023-05-29T04:15:15;22.60;;;3.80;;
12597;SDS011;6364;53.590;9.956;2023-05-29T04:17:40;19.05;;;3.92;;
12597;SDS011;6364;53.590;9.956;2023-05-29T04:20:06;20.80;;;3.60;;
12597;SDS011;6364;53.590;9.956;2023-05-29T04:22:36;23.00;;;4.22;;
12597;SDS011;6364;53.590;9.956;2023-05-29T04:25:03;28.50;;;4.07;;
12597;SDS011;6364;53.590;9.956;2023-05-29T04:27:29;17.65;;;3.83;;
12597;SDS011;6364;53.590;9.956;2023-05-29T04:29:57;17.20;;;3.67;;
12597;SDS011;6364;53.590;9.956;2023-05-29T04:32:23;20.02;;;3.58;;
12597;SDS011;6364;53.590;9.956;2023-05-29T04:34:48;18.35;;;3.85;;
12597;SDS011;6364;53.590;9.956;2023-05-29T04:37:14;17.80;;;3.65;;
12597;SDS011;6364;53.590;9.956;2023-05-29T04:39:40;16.38;;;3.85;;
12597;SDS011;6364;53.590;9.956;2023-05-29T04:42:05;22.90;;;4.25;;
12597;SDS011;6364;53.590;9.956;2023-05-29T04:44:30;25.15;;;4.40;;
12597;SDS011;6364;53.590;9.956;2023-05-29T04:46:56;23.80;;;3.70;;
12597;SDS011;6364;53.590;9.956;2023-05-29T04:49:22;17.98;;;3.33;;
12597;SDS011;6364;53.590;9.956;2023-05-29T04:51:47;18.30;;;3.60;;
12597;SDS011;6364;53.590;9.956;2023-05-29T04:54:12;20.38;;;3.92;;
12597;SDS011;6364;53.590;9.956;2023-05-29T04:56:38;24.40;;;3.53;;
12597;SDS011;6364;53.590;9.956;2023-05-29T04:59:05;22.73;;;4.03;;
12597;SDS011;6364;53.590;9.956;2023-05-29T05:01:31;19.98;;;3.60;;
12597;SDS011;6364;53.590;9.956;2023-05-29T05:03:58;22.05;;;3.75;;
12597;SDS011;6364;53.590;9.956;2023-05-29T05:06:24;23.58;;;4.13;;
12597;SDS011;6364;53.590;9.956;2023-05-29T05:08:50;25.42;;;4.22;;
12597;SDS011;6364;53.590;9.956;2023-05-29T05:11:16;21.88;;;4.32;;
12597;SDS011;6364;53.590;9.956;2023-05-29T05:13:42;19.00;;;3.58;;
12597;SDS011;6364;53.590;9.956;2023-05-29T05:16:08;20.38;;;4.18;;
12597;SDS011;6364;53.590;9.956;2023-05-29T05:18:33;18.15;;;3.03;;
12597;SDS011;6364;53.590;9.956;2023-05-29T05:20:58;24.08;;;4.28;;
12597;SDS011;6364;53.590;9.956;2023-05-29T05:23:24;25.75;;;3.92;;
12597;SDS011;6364;53.590;9.956;2023-05-29T05:25:50;21.70;;;3.83;;
12597;SDS011;6364;53.590;9.956;2023-05-29T05:28:15;24.60;;;3.95;;
12597;SDS011;6364;53.590;9.956;2023-05-29T05:30:40;21.30;;;3.63;;
12597;SDS011;6364;53.590;9.956;2023-05-29T05:33:06;18.98;;;3.45;;
12597;SDS011;6364;53.590;9.956;2023-05-29T05:35:31;22.60;;;3.75;;
12597;SDS011;6364;53.590;9.956;2023-05-29T05:37:58;19.38;;;3.88;;
12597;SDS011;6364;53.590;9.956;2023-05-29T05:40:24;21.00;;;3.97;;
12597;SDS011;6364;53.590;9.956;2023-05-29T05:42:50;21.58;;;4.15;;
12597;SDS011;6364;53.590;9.956;2023-05-29T05:45:16;18.58;;;4.07;;
12597;SDS011;6364;53.590;9.956;2023-05-29T05:47:41;19.85;;;3.80;;
12597;SDS011;6364;53.590;9.956;2023-05-29T05:50:06;19.48;;;3.65;;
12597;SDS011;6364;53.590;9.956;2023-05-29T05:52:32;22.75;;;4.40;;
12597;SDS011;6364;53.590;9.956;2023-05-29T05:54:58;19.63;;;3.95;;
12597;SDS011;6364;53.590;9.956;2023-05-29T05:57:24;23.08;;;3.38;;
12597;SDS011;6364;53.590;9.956;2023-05-29T05:59:50;27.17;;;3.97;;
12597;SDS011;6364;53.590;9.956;2023-05-29T06:02:15;25.50;;;4.10;;
12597;SDS011;6364;53.590;9.956;2023-05-29T06:04:41;24.17;;;4.18;;
12597;SDS011;6364;53.590;9.956;2023-05-29T06:07:06;24.13;;;4.43;;
12597;SDS011;6364;53.590;9.956;2023-05-29T06:09:32;18.05;;;3.08;;
12597;SDS011;6364;53.590;9.956;2023-05-29T06:11:57;22.02;;;4.22;;
12597;SDS011;6364;53.590;9.956;2023-05-29T06:14:23;23.33;;;4.50;;
12597;SDS011;6364;53.590;9.956;2023-05-29T06:16:49;26.27;;;4.65;;
12597;SDS011;6364;53.590;9.956;2023-05-29T06:19:15;26.20;;;4.07;;
12597;SDS011;6364;53.590;9.956;2023-05-29T06:21:40;25.15;;;3.88;;
12597;SDS011;6364;53.590;9.956;2023-05-29T06:24:06;16.65;;;3.78;;
12597;SDS011;6364;53.590;9.956;2023-05-29T06:26:31;19.67;;;4.60;;
12597;SDS011;6364;53.590;9.956;2023-05-29T06:28:57;21.20;;;4.75;;
12597;SDS011;6364;53.590;9.956;2023-05-29T06:31:22;18.42;;;3.55;;
12597;SDS011;6364;53.590;9.956;2023-05-29T06:33:47;25.25;;;4.53;;
12597;SDS011;6364;53.590;9.956;2023-05-29T06:36:13;21.20;;;4.20;;
12597;SDS011;6364;53.590;9.956;2023-05-29T06:38:38;16.73;;;3.80;;
12597;SDS011;6364;53.590;9.956;2023-05-29T06:41:03;21.92;;;4.13;;
12597;SDS011;6364;53.590;9.956;2023-05-29T06:43:29;24.48;;;4.13;;
12597;SDS011;6364;53.590;9.956;2023-05-29T06:45:54;22.88;;;4.15;;
12597;SDS011;6364;53.590;9.956;2023-05-29T06:48:20;20.25;;;4.05;;
12597;SDS011;6364;53.590;9.956;2023-05-29T06:50:45;17.33;;;3.88;;
12597;SDS011;6364;53.590;9.956;2023-05-29T06:53:12;22.33;;;4.68;;
12597;SDS011;6364;53.590;9.956;2023-05-29T06:55:37;17.13;;;4.18;;
12597;SDS011;6364;53.590;9.956;2023-05-29T06:58:02;22.23;;;3.80;;
12597;SDS011;6364;53.590;9.956;2023-05-29T07:00:28;27.05;;;5.07;;
12597;SDS011;6364;53.590;9.956;2023-05-29T07:02:53;17.73;;;4.03;;
12597;SDS011;6364;53.590;9.956;2023-05-29T07:05:19;19.10;;;4.22;;
12597;SDS011;6364;53.590;9.956;2023-05-29T07:07:44;22.88;;;3.92;;
12597;SDS011;6364;53.590;9.956;2023-05-29T07:10:10;25.02;;;4.55;;
12597;SDS011;6364;53.590;9.956;2023-05-29T07:12:35;24.63;;;4.28;;
12597;SDS011;6364;53.590;9.956;2023-05-29T07:15:00;23.00;;;3.95;;
12597;SDS011;6364;53.590;9.956;2023-05-29T07:17:26;23.23;;;4.10;;
12597;SDS011;6364;53.590;9.956;2023-05-29T07:19:51;21.33;;;4.03;;
12597;SDS011;6364;53.590;9.956;2023-05-29T07:22:17;24.00;;;4.18;;
12597;SDS011;6364;53.590;9.956;2023-05-29T07:24:42;25.23;;;4.65;;
12597;SDS011;6364;53.590;9.956;2023-05-29T07:27:07;23.73;;;4.30;;
12597;SDS011;6364;53.590;9.956;2023-05-29T07:29:33;23.73;;;4.25;;
12597;SDS011;6364;53.590;9.956;2023-05-29T07:31:58;27.38;;;5.20;;
12597;SDS011;6364;53.590;9.956;2023-05-29T07:34:23;19.60;;;4.05;;
12597;SDS011;6364;53.590;9.956;2023-05-29T07:36:56;22.30;;;4.45;;
12597;SDS011;6364;53.590;9.956;2023-05-29T07:39:22;24.25;;;4.05;;
12597;SDS011;6364;53.590;9.956;2023-05-29T07:41:48;27.27;;;4.50;;
12597;SDS011;6364;53.590;9.956;2023-05-29T07:44:13;25.23;;;4.72;;
12597;SDS011;6364;53.590;9.956;2023-05-29T07:46:39;19.27;;;4.05;;
12597;SDS011;6364;53.590;9.956;2023-05-29T07:49:04;20.85;;;3.50;;
12597;SDS011;6364;53.590;9.956;2023-05-29T07:51:29;19.55;;;3.92;;
12597;SDS011;6364;53.590;9.956;2023-05-29T07:53:54;25.73;;;4.10;;
12597;SDS011;6364;53.590;9.956;2023-05-29T07:56:20;19.35;;;4.35;;
12597;SDS011;6364;53.590;9.956;2023-05-29T07:58:46;22.33;;;5.13;;
12597;SDS011;6364;53.590;9.956;2023-05-29T08:01:11;19.38;;;4.28;;
12597;SDS011;6364;53.590;9.956;2023-05-29T08:03:37;18.45;;;3.75;;
12597;SDS011;6364;53.590;9.956;2023-05-29T08:06:02;22.10;;;3.80;;
12597;SDS011;6364;53.590;9.956;2023-05-29T08:08:28;18.00;;;4.00;;
12597;SDS011;6364;53.590;9.956;2023-05-29T08:10:53;17.38;;;3.40;;
12597;SDS011;6364;53.590;9.956;2023-05-29T08:13:18;19.58;;;4.47;;
12597;SDS011;6364;53.590;9.956;2023-05-29T08:15:44;20.60;;;3.80;;
12597;SDS011;6364;53.590;9.956;2023-05-29T08:18:09;15.82;;;3.65;;
12597;SDS011;6364;53.590;9.956;2023-05-29T08:20:34;18.00;;;3.53;;
12597;SDS011;6364;53.590;9.956;2023-05-29T08:23:00;18.23;;;4.05;;
12597;SDS011;6364;53.590;9.956;2023-05-29T08:25:25;20.40;;;4.25;;
12597;SDS011;6364;53.590;9.956;2023-05-29T08:27:51;18.88;;;3.72;;
12597;SDS011;6364;53.590;9.956;2023-05-29T08:30:16;19.02;;;3.85;;
12597;SDS011;6364;53.590;9.956;2023-05-29T08:32:41;19.85;;;4.15;;
12597;SDS011;6364;53.590;9.956;2023-05-29T08:35:07;23.45;;;4.15;;
12597;SDS011;6364;53.590;9.956;2023-05-29T08:37:33;15.30;;;3.28;;
12597;SDS011;6364;53.590;9.956;2023-05-29T08:39:58;18.95;;;4.45;;
12597;SDS011;6364;53.590;9.956;2023-05-29T08:42:29;18.30;;;3.83;;
12597;SDS011;6364;53.590;9.956;2023-05-29T08:44:57;15.45;;;3.70;;
12597;SDS011;6364;53.590;9.956;2023-05-29T08:47:27;21.23;;;3.97;;
12597;SDS011;6364;53.590;9.956;2023-05-29T08:49:54;26.02;;;3.83;;
12597;SDS011;6364;53.590;9.956;2023-05-29T08:52:23;18.70;;;4.07;;
12597;SDS011;6364;53.590;9.956;2023-05-29T08:54:50;20.67;;;4.15;;
12597;SDS011;6364;53.590;9.956;2023-05-29T08:57:16;22.35;;;4.60;;
12597;SDS011;6364;53.590;9.956;2023-05-29T08:59:42;16.27;;;3.95;;
12597;SDS011;6364;53.590;9.956;2023-05-29T09:02:09;19.38;;;4.07;;
12597;SDS011;6364;53.590;9.956;2023-05-29T09:04:36;21.25;;;3.95;;
12597;SDS011;6364;53.590;9.956;2023-05-29T09:07:01;19.92;;;4.10;;
12597;SDS011;6364;53.590;9.956;2023-05-29T09:09:28;17.90;;;4.50;;
12597;SDS011;6364;53.590;9.956;2023-05-29T09:11:54;18.13;;;3.90;;
12597;SDS011;6364;53.590;9.956;2023-05-29T09:17:03;16.63;;;3.63;;
12597;SDS011;6364;53.590;9.956;2023-05-29T09:19:29;22.40;;;4.03;;
12597;SDS011;6364;53.590;9.956;2023-05-29T09:22:05;18.83;;;3.95;;
12597;SDS011;6364;53.590;9.956;2023-05-29T09:24:35;20.25;;;4.05;;
12597;SDS011;6364;53.590;9.956;2023-05-29T09:27:01;23.15;;;4.55;;
12597;SDS011;6364;53.590;9.956;2023-05-29T09:29:32;18.08;;;3.80;;
12597;SDS011;6364;53.590;9.956;2023-05-29T09:32:08;19.08;;;3.78;;
12597;SDS011;6364;53.590;9.956;2023-05-29T09:34:34;13.05;;;3.22;;
12597;SDS011;6364;53.590;9.956;2023-05-29T09:37:03;17.60;;;4.10;;
12597;SDS011;6364;53.590;9.956;2023-05-29T09:39:34;17.13;;;4.30;;
12597;SDS011;6364;53.590;9.956;2023-05-29T09:42:00;14.98;;;3.13;;
12597;SDS011;6364;53.590;9.956;2023-05-29T09:44:26;15.30;;;3.50;;
12597;SDS011;6364;53.590;9.956;2023-05-29T09:46:56;13.15;;;3.35;;
12597;SDS011;6364;53.590;9.956;2023-05-29T09:49:23;12.00;;;3.60;;
12597;SDS011;6364;53.590;9.956;2023-05-29T09:51:48;18.75;;;3.42;;
12597;SDS011;6364;53.590;9.956;2023-05-29T09:54:14;17.25;;;3.60;;
12597;SDS011;6364;53.590;9.956;2023-05-29T09:56:40;16.08;;;4.18;;
12597;SDS011;6364;53.590;9.956;2023-05-29T09:59:11;18.17;;;3.83;;
12597;SDS011;6364;53.590;9.956;2023-05-29T10:01:41;17.13;;;3.90;;
12597;SDS011;6364;53.590;9.956;2023-05-29T10:04:07;20.00;;;3.40;;
12597;SDS011;6364;53.590;9.956;2023-05-29T10:06:35;14.35;;;3.70;;
12597;SDS011;6364;53.590;9.956;2023-05-29T10:09:02;13.18;;;3.55;;
12597;SDS011;6364;53.590;9.956;2023-05-29T10:11:28;15.85;;;3.45;;
12597;SDS011;6364;53.590;9.956;2023-05-29T10:13:54;15.13;;;3.80;;
12597;SDS011;6364;53.590;9.956;2023-05-29T10:16:22;21.40;;;3.95;;
12597;SDS011;6364;53.590;9.956;2023-05-29T10:18:54;17.75;;;3.75;;
12597;SDS011;6364;53.590;9.956;2023-05-29T10:21:20;17.30;;;3.80;;
12597;SDS011;6364;53.590;9.956;2023-05-29T10:23:47;17.08;;;3.67;;
12597;SDS011;6364;53.590;9.956;2023-05-29T10:26:24;16.63;;;3.35;;
12597;SDS011;6364;53.590;9.956;2023-05-29T10:29:15;14.63;;;3.72;;
12597;SDS011;6364;53.590;9.956;2023-05-29T10:31:46;17.10;;;3.58;;
12597;SDS011;6364;53.590;9.956;2023-05-29T10:37:10;15.32;;;3.40;;
12597;SDS011;6364;53.590;9.956;2023-05-29T10:39:43;13.43;;;3.53;;
12597;SDS011;6364;53.590;9.956;2023-05-29T10:45:05;16.45;;;3.85;;
12597;SDS011;6364;53.590;9.956;2023-05-29T10:47:31;19.95;;;3.92;;
12597;SDS011;6364;53.590;9.956;2023-05-29T10:49:59;15.02;;;3.35;;
12597;SDS011;6364;53.590;9.956;2023-05-29T10:52:25;9.98;;;2.90;;
12597;SDS011;6364;53.590;9.956;2023-05-29T10:54:51;16.15;;;3.50;;
12597;SDS011;6364;53.590;9.956;2023-05-29T10:57:20;10.05;;;3.00;;
12597;SDS011;6364;53.590;9.956;2023-05-29T10:59:46;12.88;;;3.10;;
12597;SDS011;6364;53.590;9.956;2023-05-29T11:02:11;14.82;;;2.85;;
12597;SDS011;6364;53.590;9.956;2023-05-29T11:04:42;11.82;;;3.15;;
12597;SDS011;6364;53.590;9.956;2023-05-29T11:07:07;12.65;;;3.03;;
12597;SDS011;6364;53.590;9.956;2023-05-29T11:10:12;12.93;;;3.22;;
12597;SDS011;6364;53.590;9.956;2023-05-29T11:12:55;12.50;;;3.03;;
12597;SDS011;6364;53.590;9.956;2023-05-29T11:15:21;14.90;;;3.47;;
12597;SDS011;6364;53.590;9.956;2023-05-29T11:17:48;14.85;;;3.60;;
12597;SDS011;6364;53.590;9.956;2023-05-29T11:20:28;11.05;;;3.20;;
12597;SDS011;6364;53.590;9.956;2023-05-29T11:23:05;16.92;;;3.42;;
12597;SDS011;6364;53.590;9.956;2023-05-29T11:25:34;13.07;;;3.50;;
12597;SDS011;6364;53.590;9.956;2023-05-29T11:28:01;19.42;;;3.90;;
12597;SDS011;6364;53.590;9.956;2023-05-29T11:30:29;12.60;;;3.60;;
12597;SDS011;6364;53.590;9.956;2023-05-29T11:32:55;13.55;;;3.38;;
12597;SDS011;6364;53.590;9.956;2023-05-29T11:35:25;18.38;;;3.60;;
12597;SDS011;6364;53.590;9.956;2023-05-29T11:37:51;11.23;;;3.03;;
12597;SDS011;6364;53.590;9.956;2023-05-29T11:40:16;12.07;;;3.63;;
12597;SDS011;6364;53.590;9.956;2023-05-29T11:42:42;12.75;;;3.47;;
12597;SDS011;6364;53.590;9.956;2023-05-29T11:47:50;9.25;;;2.90;;
12597;SDS011;6364;53.590;9.956;2023-05-29T11:50:23;13.38;;;3.35;;
12597;SDS011;6364;53.590;9.956;2023-05-29T11:52:49;15.10;;;2.80;;
12597;SDS011;6364;53.590;9.956;2023-05-29T11:55:15;13.15;;;3.10;;
12597;SDS011;6364;53.590;9.956;2023-05-29T11:57:40;10.25;;;2.83;;
12597;SDS011;6364;53.590;9.956;2023-05-29T12:00:06;9.60;;;2.92;;
12597;SDS011;6364;53.590;9.956;2023-05-29T12:02:36;15.18;;;3.83;;
12597;SDS011;6364;53.590;9.956;2023-05-29T12:05:05;23.05;;;3.30;;
12597;SDS011;6364;53.590;9.956;2023-05-29T12:07:34;7.10;;;2.65;;
12597;SDS011;6364;53.590;9.956;2023-05-29T12:10:12;15.18;;;3.15;;
12597;SDS011;6364;53.590;9.956;2023-05-29T12:12:39;11.95;;;3.13;;
12597;SDS011;6364;53.590;9.956;2023-05-29T12:15:05;14.90;;;3.25;;
12597;SDS011;6364;53.590;9.956;2023-05-29T12:17:32;17.85;;;3.28;;
12597;SDS011;6364;53.590;9.956;2023-05-29T12:19:58;11.82;;;3.63;;
12597;SDS011;6364;53.590;9.956;2023-05-29T12:22:33;13.52;;;3.13;;
12597;SDS011;6364;53.590;9.956;2023-05-29T12:25:13;11.80;;;3.25;;
12597;SDS011;6364;53.590;9.956;2023-05-29T12:27:40;10.25;;;3.03;;
12597;SDS011;6364;53.590;9.956;2023-05-29T12:30:08;10.50;;;2.83;;
12597;SDS011;6364;53.590;9.956;2023-05-29T12:32:35;8.95;;;2.90;;
12597;SDS011;6364;53.590;9.956;2023-05-29T12:37:59;13.52;;;3.28;;
12597;SDS011;6364;53.590;9.956;2023-05-29T12:40:27;11.98;;;3.10;;
12597;SDS011;6364;53.590;9.956;2023-05-29T12:45:36;13.23;;;3.35;;
12597;SDS011;6364;53.590;9.956;2023-05-29T12:48:02;10.60;;;3.03;;
12597;SDS011;6364;53.590;9.956;2023-05-29T12:55:27;9.40;;;2.70;;
12597;SDS011;6364;53.590;9.956;2023-05-29T12:57:54;9.88;;;2.78;;
12597;SDS011;6364;53.590;9.956;2023-05-29T13:00:20;10.23;;;3.33;;
12597;SDS011;6364;53.590;9.956;2023-05-29T13:02:46;9.63;;;3.22;;
12597;SDS011;6364;53.590;9.956;2023-05-29T13:05:13;9.27;;;3.15;;
12597;SDS011;6364;53.590;9.956;2023-05-29T13:07:38;10.63;;;2.90;;
12597;SDS011;6364;53.590;9.956;2023-05-29T13:10:04;11.65;;;3.08;;
12597;SDS011;6364;53.590;9.956;2023-05-29T13:12:30;11.85;;;3.17;;
12597;SDS011;6364;53.590;9.956;2023-05-29T13:14:55;9.10;;;3.10;;
12597;SDS011;6364;53.590;9.956;2023-05-29T13:17:21;8.57;;;2.90;;
12597;SDS011;6364;53.590;9.956;2023-05-29T13:19:47;8.52;;;2.90;;
12597;SDS011;6364;53.590;9.956;2023-05-29T13:22:12;8.80;;;3.08;;
12597;SDS011;6364;53.590;9.956;2023-05-29T13:24:37;9.57;;;3.05;;
12597;SDS011;6364;53.590;9.956;2023-05-29T13:27:03;6.30;;;2.40;;
12597;SDS011;6364;53.590;9.956;2023-05-29T13:29:29;9.15;;;3.17;;
12597;SDS011;6364;53.590;9.956;2023-05-29T13:31:54;10.00;;;2.88;;
12597;SDS011;6364;53.590;9.956;2023-05-29T13:34:19;8.02;;;2.92;;
12597;SDS011;6364;53.590;9.956;2023-05-29T13:36:45;6.50;;;3.00;;
12597;SDS011;6364;53.590;9.956;2023-05-29T13:39:10;9.38;;;3.20;;
12597;SDS011;6364;53.590;9.956;2023-05-29T13:41:35;9.02;;;2.90;;
12597;SDS011;6364;53.590;9.956;2023-05-29T13:44:01;9.02;;;3.42;;
12597;SDS011;6364;53.590;9.956;2023-05-29T13:46:26;7.03;;;3.05;;
12597;SDS011;6364;53.590;9.956;2023-05-29T13:48:52;9.82;;;3.10;;
12597;SDS011;6364;53.590;9.956;2023-05-29T13:51:17;9.70;;;2.92;;
12597;SDS011;6364;53.590;9.956;2023-05-29T13:53:42;9.70;;;3.15;;
12597;SDS011;6364;53.590;9.956;2023-05-29T13:56:08;7.82;;;3.00;;
12597;SDS011;6364;53.590;9.956;2023-05-29T13:58:33;8.25;;;3.00;;
12597;SDS011;6364;53.590;9.956;2023-05-29T14:00:58;9.40;;;3.17;;
12597;SDS011;6364;53.590;9.956;2023-05-29T14:03:24;8.90;;;3.50;;
12597;SDS011;6364;53.590;9.956;2023-05-29T14:05:53;9.93;;;2.92;;
12597;SDS011;6364;53.590;9.956;2023-05-29T14:08:18;6.55;;;2.53;;
12597;SDS011;6364;53.590;9.956;2023-05-29T14:10:44;7.15;;;3.00;;
12597;SDS011;6364;53.590;9.956;2023-05-29T14:13:09;9.80;;;2.97;;
12597;SDS011;6364;53.590;9.956;2023-05-29T14:15:35;10.52;;;3.30;;
12597;SDS011;6364;53.590;9.956;2023-05-29T14:18:00;8.10;;;2.90;;
12597;SDS011;6364;53.590;9.956;2023-05-29T14:20:27;10.95;;;2.97;;
12597;SDS011;6364;53.590;9.956;2023-05-29T14:22:52;10.77;;;3.08;;
12597;SDS011;6364;53.590;9.956;2023-05-29T14:25:18;11.88;;;3.30;;
12597;SDS011;6364;53.590;9.956;2023-05-29T14:27:43;10.55;;;3.33;;
12597;SDS011;6364;53.590;9.956;2023-05-29T14:30:09;10.55;;;3.45;;
12597;SDS011;6364;53.590;9.956;2023-05-29T14:32:35;9.05;;;3.00;;
12597;SDS011;6364;53.590;9.956;2023-05-29T14:35:00;11.60;;;2.90;;
12597;SDS011;6364;53.590;9.956;2023-05-29T14:37:27;10.80;;;3.35;;
12597;SDS011;6364;53.590;9.956;2023-05-29T14:39:53;9.70;;;2.80;;
12597;SDS011;6364;53.590;9.956;2023-05-29T14:42:18;8.38;;;3.08;;
12597;SDS011;6364;53.590;9.956;2023-05-29T14:44:43;8.73;;;3.17;;
12597;SDS011;6364;53.590;9.956;2023-05-29T14:47:08;13.18;;;3.63;;
12597;SDS011;6364;53.590;9.956;2023-05-29T14:49:35;9.75;;;3.45;;
12597;SDS011;6364;53.590;9.956;2023-05-29T14:52:01;16.88;;;3.17;;
12597;SDS011;6364;53.590;9.956;2023-05-29T14:54:28;9.65;;;3.50;;
12597;SDS011;6364;53.590;9.956;2023-05-29T14:56:53;11.50;;;3.28;;
12597;SDS011;6364;53.590;9.956;2023-05-29T14:59:19;13.80;;;2.97;;
12597;SDS011;6364;53.590;9.956;2023-05-29T15:01:44;12.48;;;3.05;;
12597;SDS011;6364;53.590;9.956;2023-05-29T15:04:10;9.85;;;3.22;;
12597;SDS011;6364;53.590;9.956;2023-05-29T15:06:35;8.50;;;2.83;;
12597;SDS011;6364;53.590;9.956;2023-05-29T15:09:01;8.85;;;2.80;;
12597;SDS011;6364;53.590;9.956;2023-05-29T15:11:28;12.52;;;3.42;;
12597;SDS011;6364;53.590;9.956;2023-05-29T15:13:54;15.20;;;3.67;;